Time;durP1;ratioP1;P1;durP2;ratioP2;P2;SDS_P1;SDS_P2;PMS_P1;PMS_P2;Temp;Humidity;BMP_temperature;BMP_pressure;BME280_temperature;BME280_humidity;BME280_pressure;Samples;Min_cycle;Max_cycle;Signal;HPM_P1;HPM_P2
2023/04/28 00:03:10;;;;;;;6.47;3.33;;;;;;;8.13;42.80;100313.16;7763130;32;40852;-87
2023/04/28 00:07:26;;;;;;;5.03;3.37;;;;;;;7.77;43.46;100313.28;7763232;32;37990;-89
2023/04/28 00:11:46;;;;;;;5.85;3.17;;;;;;;7.93;43.17;100316.31;7763156;32;37048;-88
2023/04/28 00:16:02;;;;;;;9.30;3.60;;;;;;;7.74;43.64;100311.03;7763070;32;40139;-88
2023/04/28 00:20:19;;;;;;;7.72;3.35;;;;;;;7.49;44.28;100312.16;7762972;32;41068;-88
2023/04/28 00:24:35;;;;;;;6.28;3.50;;;;;;;7.52;43.17;100305.44;7762661;32;37563;-88
2023/04/28 00:28:51;;;;;;;5.05;3.15;;;;;;;7.86;42.78;100316.44;7762609;32;37573;-89
2023/04/28 00:33:08;;;;;;;4.93;3.30;;;;;;;7.78;43.24;100320.38;7764093;32;39341;-87
2023/04/28 00:37:24;;;;;;;6.65;3.67;;;;;;;7.67;42.90;100318.50;7766487;32;40136;-88
2023/04/28 00:41:41;;;;;;;7.10;3.45;;;;;;;7.62;43.38;100321.09;7766479;32;37836;-88
2023/04/28 00:45:57;;;;;;;7.35;3.50;;;;;;;7.71;43.45;100322.41;7766385;32;37315;-88
2023/04/28 00:50:15;;;;;;;5.43;3.22;;;;;;;7.64;43.51;100324.41;7766109;32;39844;-88
2023/04/28 00:54:33;;;;;;;4.35;2.97;;;;;;;7.52;43.92;100311.69;7766079;32;40531;-88
2023/04/28 00:58:50;;;;;;;5.20;3.37;;;;;;;7.72;43.52;100315.88;7766207;32;38392;-88
2023/04/28 01:03:06;;;;;;;5.12;3.45;;;;;;;7.50;43.55;100308.41;7766132;32;37115;-88
2023/04/28 01:07:23;;;;;;;9.75;3.50;;;;;;;7.46;43.19;100323.50;7766064;32;40148;-88
2023/04/28 01:11:39;;;;;;;5.68;3.40;;;;;;;7.32;43.48;100327.53;7766080;32;40849;-89
2023/04/28 01:15:56;;;;;;;4.80;3.35;;;;;;;7.12;44.03;100328.72;7766076;32;38315;-87
2023/04/28 01:20:13;;;;;;;5.45;3.85;;;;;;;7.29;43.81;100336.13;7765953;32;37894;-87
2023/04/28 01:24:29;;;;;;;5.15;3.42;;;;;;;7.17;46.71;100324.47;7766034;32;39309;-88
2023/04/28 01:28:46;;;;;;;5.82;3.62;;;;;;;7.21;45.19;100325.63;7765735;32;39999;-89
2023/04/28 01:33:02;;;;;;;5.30;3.47;;;;;;;7.07;45.29;100328.59;7765704;32;38856;-89
2023/04/28 01:37:19;;;;;;;6.93;3.47;;;;;;;7.02;45.22;100328.47;7765800;32;37853;-88
2023/04/28 01:41:35;;;;;;;8.07;3.65;;;;;;;7.26;45.18;100333.88;7765773;32;39411;-88
2023/04/28 01:45:51;;;;;;;3.55;2.87;;;;;;;6.99;45.77;100328.94;7764940;32;40773;-87
2023/04/28 01:50:08;;;;;;;4.93;3.10;;;;;;;7.01;45.30;100328.72;7776898;32;38448;-87
2023/04/28 01:54:24;;;;;;;5.43;3.60;;;;;;;7.07;44.91;100325.88;7792616;32;37103;-88
2023/04/28 01:58:41;;;;;;;6.32;3.20;;;;;;;7.22;44.74;100325.41;7791367;32;40188;-87
2023/04/28 02:02:57;;;;;;;4.45;3.12;;;;;;;6.97;45.36;100331.06;7792950;32;40082;-87
2023/04/28 02:07:13;;;;;;;4.55;3.12;;;;;;;6.96;45.53;100335.63;7792651;32;37955;-87
2023/04/28 02:11:30;;;;;;;5.32;3.33;;;;;;;6.81;45.33;100335.28;7792649;32;37786;-87
2023/04/28 02:15:46;;;;;;;7.10;3.35;;;;;;;6.88;44.89;100338.72;7792573;32;39285;-88
2023/04/28 02:20:03;;;;;;;6.00;3.53;;;;;;;6.87;44.38;100341.66;7782659;32;40036;-88
2023/04/28 02:24:20;;;;;;;5.35;3.67;;;;;;;6.69;46.09;100339.84;7765560;32;37934;-87
2023/04/28 02:28:36;;;;;;;4.90;3.37;;;;;;;6.93;47.09;100336.13;7765234;32;37200;-88
2023/04/28 02:32:52;;;;;;;8.48;3.20;;;;;;;6.83;47.57;100338.59;7765313;32;39347;-88
2023/04/28 02:37:09;;;;;;;6.25;3.10;;;;;;;6.98;46.42;100348.97;7765226;32;40013;-88
2023/04/28 02:41:25;;;;;;;5.80;3.60;;;;;;;6.96;45.52;100351.09;7765012;32;37537;-87
2023/04/28 02:45:42;;;;;;;5.32;3.25;;;;;;;6.97;44.64;100341.91;7763892;32;36831;-88
2023/04/28 02:49:58;;;;;;;5.70;3.62;;;;;;;7.03;44.59;100338.25;7777108;32;39381;-89
2023/04/28 02:54:14;;;;;;;6.72;3.40;;;;;;;6.94;44.49;100342.37;7791946;32;40951;-88
2023/04/28 02:58:31;;;;;;;4.10;3.33;;;;;;;6.64;44.60;100339.72;7791770;32;37858;-89
2023/04/28 03:02:47;;;;;;;5.65;3.90;;;;;;;6.51;46.47;100355.13;7791854;32;36818;-88
2023/04/28 03:07:04;;;;;;;7.43;3.42;;;;;;;6.66;46.06;100352.00;7792076;32;40167;-88
2023/04/28 03:11:20;;;;;;;8.30;3.85;;;;;;;6.36;46.74;100352.84;7791862;32;40747;-87
2023/04/28 03:15:37;;;;;;;4.95;3.40;;;;;;;6.58;46.70;100355.03;7791745;32;37974;-88
2023/04/28 03:19:53;;;;;;;6.87;4.00;;;;;;;6.72;46.77;100350.22;7783370;32;37903;-87
2023/04/28 03:24:09;;;;;;;8.18;4.25;;;;;;;6.50;47.05;100352.66;7770509;32;39016;-84
2023/04/28 03:28:26;;;;;;;6.28;4.00;;;;;;;6.27;47.29;100354.22;7771815;32;40207;-86
2023/04/28 03:32:42;;;;;;;6.35;4.28;;;;;;;6.44;46.74;100353.59;7772253;32;38736;-86
2023/04/28 03:36:58;;;;;;;6.47;3.50;;;;;;;6.45;46.50;100366.06;7765577;32;37810;-90
2023/04/28 03:41:15;;;;;;;5.53;3.87;;;;;;;6.01;47.76;100361.63;7763124;32;40079;-89
2023/04/28 03:45:31;;;;;;;7.12;3.80;;;;;;;6.38;47.47;100361.56;7763939;32;40903;-88
2023/04/28 03:49:47;;;;;;;6.03;3.90;;;;;;;6.60;47.32;100366.44;7780175;32;38491;-90
2023/04/28 03:54:04;;;;;;;5.93;4.18;;;;;;;6.50;50.57;100360.75;7791056;32;37252;-88
2023/04/28 03:58:20;;;;;;;5.40;3.80;;;;;;;6.50;48.34;100369.75;7790867;32;39246;-88
2023/04/28 04:02:36;;;;;;;8.02;4.50;;;;;;;6.81;47.63;100364.25;7790636;32;39967;-88
2023/04/28 04:06:53;;;;;;;7.07;4.35;;;;;;;6.69;47.42;100370.50;7790596;32;37935;-88
2023/04/28 04:11:09;;;;;;;6.57;4.30;;;;;;;6.68;48.45;100363.41;7794454;32;37547;-88
2023/04/28 04:15:26;;;;;;;10.75;4.60;;;;;;;6.81;47.89;100372.41;7794125;32;39425;-89
2023/04/28 04:19:42;;;;;;;8.15;4.30;;;;;;;6.77;50.03;100375.56;7779197;32;40861;-88
2023/04/28 04:23:58;;;;;;;7.80;4.32;;;;;;;6.70;51.82;100369.44;7766646;32;38635;-88
2023/04/28 04:28:15;;;;;;;6.95;4.25;;;;;;;6.70;51.32;100374.84;7766483;32;37126;-88
2023/04/28 04:32:31;;;;;;;5.68;3.87;;;;;;;6.76;51.08;100373.94;7765513;32;40018;-89
2023/04/28 04:36:48;;;;;;;7.90;4.15;;;;;;;6.93;50.80;100367.81;7766590;32;40045;-89
2023/04/28 04:41:04;;;;;;;5.65;4.00;;;;;;;6.98;50.66;100367.94;7766450;32;37823;-89
2023/04/28 04:45:21;;;;;;;8.90;4.55;;;;;;;7.08;51.25;100365.47;7766450;32;37322;-89
2023/04/28 04:49:37;;;;;;;6.37;4.32;;;;;;;7.21;50.54;100358.16;7783567;32;40454;-89
2023/04/28 04:53:55;;;;;;;10.05;4.28;;;;;;;7.55;49.69;100361.94;7793475;32;40888;-88
2023/04/28 04:58:11;;;;;;;10.95;4.75;;;;;;;7.55;49.58;100363.81;7792054;32;37573;-86
2023/04/28 05:02:28;;;;;;;10.10;4.37;;;;;;;7.61;50.40;100366.41;7793366;32;37158;-88
2023/04/28 05:06:44;;;;;;;8.02;4.62;;;;;;;7.72;50.10;100357.41;7793329;32;40177;-89
2023/04/28 05:11:00;;;;;;;8.02;4.35;;;;;;;7.92;49.88;100363.50;7792142;32;39896;-90
2023/04/28 05:15:16;;;;;;;8.93;4.40;;;;;;;8.14;50.02;100366.41;7793177;32;37948;-89
2023/04/28 05:19:33;;;;;;;10.07;4.15;;;;;;;8.43;49.13;100365.38;7790617;32;37873;-88
2023/04/28 05:23:49;;;;;;;12.37;4.97;;;;;;;8.54;49.21;100360.16;7793129;32;40460;-89
2023/04/28 05:28:09;;;;;;;8.20;4.30;;;;;;;8.34;50.62;100371.41;7792975;32;39574;-88
2023/04/28 05:32:25;;;;;;;6.87;4.62;;;;;;;8.45;49.36;100367.84;7792006;32;37669;-88
2023/04/28 05:36:42;;;;;;;9.40;4.40;;;;;;;8.26;50.22;100361.75;7792911;32;36771;-88
2023/04/28 05:40:58;;;;;;;10.63;4.95;;;;;;;8.31;50.74;100366.47;7792912;32;39351;-88
2023/04/28 05:45:15;;;;;;;9.23;4.95;;;;;;;8.80;49.58;100359.50;7792844;32;40779;-88
2023/04/28 05:49:31;;;;;;;7.07;4.35;;;;;;;8.82;50.31;100370.13;7752667;32;37668;-87
2023/04/28 05:53:50;;;;;;;11.07;4.47;;;;;;;9.11;49.57;100360.00;7738725;32;36887;-88
2023/04/28 05:58:08;;;;;;;7.72;4.22;;;;;;;9.52;48.83;100359.78;7755008;32;39213;-89
2023/04/28 06:02:27;;;;;;;7.68;4.18;;;;;;;9.61;48.02;100362.87;7765664;32;38955;-82
2023/04/28 06:06:45;;;;;;;11.07;4.93;;;;;;;9.92;47.21;100364.94;7765547;32;37685;-83
2023/04/28 06:11:02;;;;;;;7.47;4.45;;;;;;;9.70;47.89;100370.38;7765348;32;36801;-83
2023/04/28 06:15:19;;;;;;;12.50;4.68;;;;;;;10.19;47.46;100363.34;7775492;32;39395;-68
2023/04/28 06:19:37;;;;;;;10.95;3.58;;;;;;;10.78;47.11;100354.41;7792731;32;38981;-85
2023/04/28 06:23:53;;;;;;;13.88;3.00;;;;;;;11.29;43.82;100357.56;7792840;32;38633;-89
2023/04/28 06:28:12;;;;;;;8.05;3.55;;;;;;;11.60;41.62;100355.00;7792429;32;37963;-87
2023/04/28 06:32:28;;;;;;;9.75;3.78;;;;;;;12.12;40.28;100362.37;7792093;32;39386;-88
2023/04/28 06:36:46;;;;;;;6.53;3.60;;;;;;;12.58;39.04;100356.22;7792278;32;40856;-87
2023/04/28 06:41:03;;;;;;;9.52;3.62;;;;;;;12.25;39.72;100355.59;7792584;32;37999;-89
2023/04/28 06:45:21;;;;;;;5.55;3.70;;;;;;;12.60;38.25;100359.47;7773020;32;36964;-88
2023/04/28 06:49:38;;;;;;;8.82;3.17;;;;;;;12.65;40.75;100364.97;7765921;32;39292;-85
2023/04/28 06:53:55;;;;;;;9.55;4.10;;;;;;;13.08;37.88;100361.97;7768485;32;40826;-89
2023/04/28 06:58:12;;;;;;;5.85;3.15;;;;;;;13.37;37.74;100354.03;7754832;32;37870;-89
2023/04/28 07:02:30;;;;;;;11.70;3.65;;;;;;;13.40;36.80;100358.13;7774112;32;37074;-87
2023/04/28 07:06:49;;;;;;;10.68;4.05;;;;;;;13.49;37.16;100354.56;7756015;32;40015;-89
2023/04/28 07:11:07;;;;;;;7.37;3.50;;;;;;;13.71;34.40;100346.00;7788800;32;38846;-88
2023/04/28 07:15:26;;;;;;;14.00;4.15;;;;;;;14.17;35.86;100350.47;7760541;32;38476;-87
2023/04/28 07:19:42;;;;;;;6.03;3.08;;;;;;;14.41;34.37;100344.31;7763544;32;37113;-88
2023/04/28 07:24:01;;;;;;;10.88;3.22;;;;;;;14.59;34.27;100332.69;7763805;32;38221;-88
2023/04/28 07:28:19;;;;;;;4.60;2.67;;;;;;;14.64;33.63;100334.56;7762081;32;40457;-86
2023/04/28 07:32:36;;;;;;;6.43;3.20;;;;;;;14.48;32.72;100339.31;7768585;32;37888;-87
2023/04/28 07:36:53;;;;;;;5.15;3.12;;;;;;;14.96;32.94;100339.53;7788501;32;37066;-84
2023/04/28 07:41:09;;;;;;;9.43;3.58;;;;;;;15.07;33.39;100328.47;7772275;32;39084;-83
2023/04/28 07:45:26;;;;;;;10.35;3.37;;;;;;;15.47;34.14;100327.25;7761990;32;40757;-83
2023/04/28 07:49:42;;;;;;;9.80;2.97;;;;;;;15.83;32.73;100317.78;7764132;32;38856;-84
2023/04/28 07:53:59;;;;;;;5.95;3.00;;;;;;;15.61;33.30;100321.03;7763374;32;36698;-86
2023/04/28 07:58:15;;;;;;;6.53;3.08;;;;;;;16.06;32.52;100303.19;7762687;32;39003;-84
2023/04/28 08:02:33;;;;;;;7.95;2.78;;;;;;;16.52;31.60;100296.19;7763269;32;40783;-85
2023/04/28 08:06:49;;;;;;;10.80;3.28;;;;;;;16.77;30.02;100291.41;7762289;32;37579;-85
2023/04/28 08:11:07;;;;;;;6.45;3.10;;;;;;;17.02;30.18;100284.66;7762995;32;37278;-85
2023/04/28 08:15:24;;;;;;;10.45;3.45;;;;;;;17.20;30.73;100289.28;7762571;32;40436;-86
2023/04/28 08:19:41;;;;;;;7.72;3.03;;;;;;;17.21;28.69;100282.66;7762066;32;40448;-88
2023/04/28 08:23:58;;;;;;;8.55;3.08;;;;;;;17.29;27.68;100274.78;7770102;32;38149;-86
2023/04/28 08:28:14;;;;;;;10.38;3.05;;;;;;;17.26;27.93;100277.03;7781891;32;37721;-86
2023/04/28 08:32:31;;;;;;;6.55;3.17;;;;;;;16.55;26.27;100273.56;7775070;32;40069;-86
2023/04/28 08:36:47;;;;;;;11.35;3.72;;;;;;;16.99;27.56;100268.72;7760282;32;39902;-86
2023/04/28 08:41:04;;;;;;;8.60;3.22;;;;;;;17.64;28.58;100263.06;7771954;32;38015;-87
2023/04/28 08:45:22;;;;;;;8.32;3.30;;;;;;;17.26;28.38;100255.00;7734841;32;37769;-87
2023/04/28 08:49:39;;;;;;;7.05;3.30;;;;;;;17.89;28.63;100244.34;7749610;32;38526;-87
2023/04/28 08:53:58;;;;;;;7.97;3.65;;;;;;;17.73;26.44;100240.25;7790066;32;39819;-86
2023/04/28 08:58:36;;;;;;;6.85;3.92;;;;;;;17.38;28.20;100242.62;7778704;32;38252;-85
2023/04/28 09:02:52;;;;;;;26.52;15.65;;;;;;;17.47;27.36;100243.53;7793268;32;37205;-86
2023/04/28 09:07:13;;;;;;;12.73;5.10;;;;;;;18.21;27.67;100239.75;7792303;32;39381;-86
2023/04/28 09:11:29;;;;;;;7.93;3.00;;;;;;;18.53;26.19;100240.66;7764646;32;41529;-92
2023/04/28 09:15:45;;;;;;;10.50;3.20;;;;;;;18.89;27.67;100242.53;7764779;32;37794;-92
2023/04/28 09:20:03;;;;;;;7.75;3.15;;;;;;;18.75;25.83;100242.59;7762519;32;37726;-85
2023/04/28 09:24:30;;;;;;;5.55;3.10;;;;;;;19.08;24.10;100234.81;7766599;32;39301;-87
2023/04/28 09:28:46;;;;;;;5.75;2.92;;;;;;;18.75;24.20;100232.34;7765031;32;38845;-85
2023/04/28 09:33:07;;;;;;;8.90;2.83;;;;;;;18.83;24.20;100235.50;7764960;32;38756;-86
2023/04/28 09:37:29;;;;;;;;;;;;;;;18.38;24.26;100234.41;7793067;32;36965;-86
2023/04/28 09:41:45;;;;;;;7.93;2.92;;;;;;;18.87;23.38;100228.25;7767716;32;40150;-86
2023/04/28 09:46:04;;;;;;;6.05;2.67;;;;;;;18.06;21.09;100220.81;7737160;32;40101;-86
2023/04/28 09:50:20;;;;;;;4.30;2.37;;;;;;;18.52;23.27;100217.78;7741665;32;36978;-84
2023/04/28 09:54:36;;;;;;;9.27;2.78;;;;;;;18.39;22.77;100213.94;7747313;32;37037;-87
2023/04/28 09:58:53;;;;;;;22.50;8.75;;;;;;;18.43;23.15;100211.34;7746918;32;40019;-86
2023/04/28 10:03:09;;;;;;;12.00;5.82;;;;;;;18.19;21.96;100212.47;7747137;32;38548;-84
2023/04/28 10:07:27;;;;;;;7.20;3.10;;;;;;;18.49;22.22;100206.50;7743480;32;38009;-86
2023/04/28 10:11:43;;;;;;;7.57;2.70;;;;;;;18.80;21.61;100197.44;7753250;32;37596;-86
2023/04/28 10:16:01;;;;;;;8.20;3.00;;;;;;;18.50;22.82;100197.13;7751768;32;40169;-84
2023/04/28 10:20:18;;;;;;;8.90;3.20;;;;;;;18.58;22.64;100193.59;7752706;32;40974;-82
2023/04/28 10:24:45;;;;;;;5.07;2.70;;;;;;;18.49;21.26;100185.25;7755356;32;38008;-85
2023/04/28 10:29:02;;;;;;;6.62;2.95;;;;;;;19.11;22.11;100167.88;7753411;32;36429;-85
2023/04/28 10:33:23;;;;;;;8.18;3.65;;;;;;;18.87;21.74;100159.19;7758613;32;40012;-85
2023/04/28 10:38:07;;;;;;;7.45;3.10;;;;;;;18.83;22.28;100150.69;7757840;32;39640;-83
2023/04/28 10:42:53;;;;;;;6.53;2.80;;;;;;;20.00;21.06;100144.75;7741017;32;38771;-85
2023/04/28 10:47:10;;;;;;;7.97;3.05;;;;;;;20.51;21.07;100140.28;7737526;32;37103;-84
2023/04/28 10:51:28;;;;;;;9.35;3.33;;;;;;;19.77;18.83;100136.63;7752943;32;40032;-83
2023/04/28 10:55:44;;;;;;;7.70;3.22;;;;;;;19.25;20.98;100136.56;7759865;32;40000;-84
2023/04/28 11:00:27;;;;;;;9.45;3.58;;;;;;;18.51;20.68;100132.50;7740154;32;38598;-84
2023/04/28 11:05:09;;;;;;;6.05;3.22;;;;;;;18.63;22.14;100127.19;7771097;32;37172;-84
2023/04/28 11:09:31;;;;;;;7.43;3.62;;;;;;;19.41;21.23;100120.31;7791250;32;39910;-84
2023/04/28 11:13:48;;;;;;;31.52;10.35;;;;;;;19.92;21.36;100102.13;7790564;32;40841;-84
2023/04/28 11:18:10;;;;;;;7.05;3.80;;;;;;;19.65;20.76;100094.97;7789712;32;38037;-85
2023/04/28 11:22:27;;;;;;;6.28;3.22;;;;;;;19.12;20.94;100114.22;7774158;32;37945;-85
2023/04/28 11:26:43;;;;;;;11.10;3.80;;;;;;;18.62;21.88;100111.75;7764493;32;40089;-85
2023/04/28 11:31:12;;;;;;;9.02;3.20;;;;;;;18.95;23.38;100111.41;7771176;32;39783;-85
2023/04/28 11:35:40;;;;;;;6.35;2.67;;;;;;;18.55;22.52;100106.69;7766481;32;38077;-84
2023/04/28 11:39:57;;;;;;;8.80;4.15;;;;;;;17.97;23.16;100105.72;7732452;32;37894;-84
2023/04/28 11:44:14;;;;;;;6.68;3.12;;;;;;;18.10;23.66;100106.75;7763239;32;38947;-85
2023/04/28 11:48:31;;;;;;;7.07;3.60;;;;;;;18.25;22.60;100108.31;7766230;32;40023;-87
2023/04/28 11:52:50;;;;;;;12.40;3.72;;;;;;;18.55;22.87;100103.91;7768173;32;38674;-87
2023/04/28 11:57:18;;;;;;;9.13;3.33;;;;;;;18.67;23.34;100092.28;7752572;32;36953;-85
2023/04/28 12:01:45;;;;;;;6.05;3.15;;;;;;;18.64;24.04;100092.91;7769593;32;40099;-84
2023/04/28 12:06:02;;;;;;;7.78;3.33;;;;;;;18.32;23.90;100081.09;7797244;32;40304;-87
2023/04/28 12:10:19;;;;;;;8.75;3.62;;;;;;;19.23;21.45;100072.47;7774949;32;38820;-83
2023/04/28 12:15:04;;;;;;;7.85;3.75;;;;;;;19.38;21.34;100074.75;7787866;32;37288;-85
2023/04/28 12:19:21;;;;;;;9.88;3.53;;;;;;;19.03;21.45;100071.94;7782754;32;39639;-88
2023/04/28 12:23:38;;;;;;;12.23;3.83;;;;;;;18.81;23.21;100075.59;7769438;32;39736;-86
2023/04/28 12:28:03;;;;;;;8.10;3.37;;;;;;;18.79;23.52;100064.06;7769542;32;38111;-86
2023/04/28 12:32:36;;;;;;;9.82;3.50;;;;;;;17.73;23.93;100064.63;7770485;32;36812;-89
2023/04/28 12:36:52;;;;;;;13.53;3.80;;;;;;;18.32;23.78;100052.69;7776994;32;39498;-83
2023/04/28 12:41:09;;;;;;;7.95;3.62;;;;;;;18.63;23.74;100038.84;7761167;32;40653;-84
2023/04/28 12:45:25;;;;;;;5.78;3.03;;;;;;;18.92;23.02;100023.66;7765850;32;37999;-85
2023/04/28 12:49:42;;;;;;;6.37;2.97;;;;;;;18.97;23.27;100006.94;7765743;32;37653;-86
2023/04/28 12:53:59;;;;;;;8.75;2.80;;;;;;;18.97;23.59;99998.63;7765572;32;39455;-87
2023/04/28 12:58:16;;;;;;;11.80;3.15;;;;;;;19.16;24.79;99989.22;7765808;32;39947;-88
2023/04/28 13:02:33;;;;;;;7.68;3.35;;;;;;;18.61;24.58;99976.78;7751787;32;38023;-86
2023/04/28 13:06:51;;;;;;;6.37;2.72;;;;;;;18.72;23.89;99978.91;7758345;32;37050;-87
2023/04/28 13:11:08;;;;;;;7.37;2.85;;;;;;;18.69;23.96;99989.78;7765218;32;38982;-87
2023/04/28 13:15:38;;;;;;;7.80;3.10;;;;;;;19.06;23.82;99974.62;7765498;32;39584;-85
2023/04/28 13:19:54;;;;;;;8.25;2.95;;;;;;;19.29;23.41;99979.97;7770107;32;38659;-85
2023/04/28 13:24:12;;;;;;;9.18;3.00;;;;;;;19.80;22.73;99974.72;7787205;32;37889;-69
2023/04/28 13:28:29;;;;;;;16.23;3.55;;;;;;;20.23;23.24;99968.22;7782294;32;39314;-87
2023/04/28 13:32:45;;;;;;;10.60;2.92;;;;;;;20.92;24.44;99967.06;7767246;32;39929;-85
2023/04/28 13:37:02;;;;;;;7.15;2.97;;;;;;;20.94;21.44;99952.88;7768549;32;37648;-84
2023/04/28 13:41:18;;;;;;;6.45;2.97;;;;;;;20.66;21.47;99939.50;7763406;32;36994;-85
2023/04/28 13:45:34;;;;;;;6.57;2.75;;;;;;;20.36;22.24;99945.03;7763644;32;40039;-82
2023/04/28 13:49:51;;;;;;;9.57;3.95;;;;;;;20.54;22.44;99931.09;7764848;32;40037;-82
2023/04/28 13:54:09;;;;;;;7.47;3.17;;;;;;;20.34;23.60;99927.16;7753160;32;38457;-87
2023/04/28 13:58:29;;;;;;;7.85;2.97;;;;;;;20.44;22.04;99929.53;7758811;32;36214;-88
2023/04/28 14:02:48;;;;;;;6.57;2.67;;;;;;;20.10;22.73;99920.25;7793122;32;40366;-87
2023/04/28 14:07:13;;;;;;;6.95;2.45;;;;;;;20.24;22.53;99926.38;7741505;32;39367;-87
2023/04/28 14:11:29;;;;;;;6.37;2.67;;;;;;;19.60;23.45;99935.53;7758118;32;38645;-87
2023/04/28 14:15:47;;;;;;;7.57;2.60;;;;;;;19.47;24.15;99929.06;7775350;32;36918;-87
2023/04/28 14:20:14;;;;;;;6.50;2.97;;;;;;;19.38;24.78;99922.72;7778101;32;39346;-87
2023/04/28 14:24:31;;;;;;;6.62;2.78;;;;;;;19.32;24.93;99913.00;7727767;32;40060;-87
2023/04/28 14:28:47;;;;;;;9.38;2.60;;;;;;;19.26;25.99;99904.03;7773210;32;38740;-68
2023/04/28 14:33:03;;;;;;;6.90;2.70;;;;;;;19.24;26.69;99911.06;7775076;32;37066;-88
2023/04/28 14:37:20;;;;;;;4.90;2.53;;;;;;;19.39;24.70;99918.84;7766293;32;40183;-87
2023/04/28 14:41:36;;;;;;;7.78;2.72;;;;;;;18.70;25.68;99920.44;7760553;32;40930;-87
2023/04/28 14:45:52;;;;;;;6.70;2.92;;;;;;;18.93;24.87;99918.38;7764104;32;37824;-88
2023/04/28 14:50:10;;;;;;;13.02;3.28;;;;;;;18.65;26.38;99919.78;7763334;32;37148;-89
2023/04/28 14:54:28;;;;;;;9.18;2.80;;;;;;;18.79;25.44;99905.84;7763695;32;39257;-89
2023/04/28 14:58:48;;;;;;;4.22;2.58;;;;;;;19.00;25.13;99890.25;7768373;32;40596;-89
2023/04/28 15:03:05;;;;;;;9.93;2.70;;;;;;;18.83;24.80;99890.25;7791337;32;38209;-89
2023/04/28 15:07:22;;;;;;;8.32;3.97;;;;;;;18.94;25.15;99894.34;7764362;32;36957;-89
2023/04/28 15:11:38;;;;;;;7.80;2.80;;;;;;;19.04;25.20;99887.66;7764635;32;39368;-91
2023/04/28 15:15:54;;;;;;;8.48;2.85;;;;;;;19.22;25.79;99885.69;7770210;32;40813;-89
2023/04/28 15:20:11;;;;;;;6.50;2.72;;;;;;;18.57;26.45;99883.56;7762220;32;38152;-90
2023/04/28 15:24:27;;;;;;;8.20;2.90;;;;;;;18.66;26.05;99883.59;7764048;32;36719;-89
2023/04/28 15:28:44;;;;;;;6.45;2.90;;;;;;;18.56;25.72;99889.41;7769898;32;39186;-89
2023/04/28 15:33:00;;;;;;;8.52;2.67;;;;;;;18.41;26.50;99890.69;7791891;32;40408;-88
2023/04/28 15:37:50;;;;;;;6.45;2.55;;;;;;;18.25;26.17;99886.75;7791410;32;37871;-90
2023/04/28 15:42:07;;;;;;;5.50;2.87;;;;;;;18.45;26.55;99877.84;7791446;32;37906;-90
2023/04/28 15:46:24;;;;;;;9.77;2.97;;;;;;;18.46;26.50;99881.44;7791308;32;40134;-90
2023/04/28 15:50:40;;;;;;;7.93;2.78;;;;;;;18.64;25.75;99868.47;7790991;32;39967;-89
2023/04/28 15:54:58;;;;;;;10.98;2.83;;;;;;;18.37;26.82;99871.19;7791093;32;38784;-90
2023/04/28 15:59:17;;;;;;;10.70;2.85;;;;;;;18.54;26.01;99861.28;7782736;32;37880;-88
2023/04/28 16:03:33;;;;;;;9.95;3.50;;;;;;;18.65;26.46;99851.56;7758393;32;40499;-87
2023/04/28 16:07:51;;;;;;;12.55;4.03;;;;;;;18.31;26.81;99844.88;7764871;32;40006;-85
2023/04/28 16:12:07;;;;;;;9.57;3.25;;;;;;;18.53;27.03;99838.41;7766169;32;37868;-87
2023/04/28 16:16:24;;;;;;;11.65;3.65;;;;;;;18.50;27.49;99846.53;7765981;32;37016;-85
2023/04/28 16:20:40;;;;;;;11.20;4.90;;;;;;;18.52;27.23;99839.56;7766617;32;39361;-84
2023/04/28 16:24:59;;;;;;;16.17;5.32;;;;;;;18.30;28.24;99839.69;7747495;32;40025;-84
2023/04/28 16:29:15;;;;;;;16.40;5.15;;;;;;;18.47;28.09;99828.69;7750279;32;37235;-84
2023/04/28 16:33:32;;;;;;;9.13;3.83;;;;;;;18.47;27.56;99816.81;7764496;32;36886;-83
2023/04/28 16:37:49;;;;;;;8.95;3.37;;;;;;;18.37;27.21;99807.72;7775188;32;39441;-84
2023/04/28 16:42:05;;;;;;;12.50;5.03;;;;;;;18.28;27.97;99803.31;7764228;32;40507;-83
2023/04/28 16:46:22;;;;;;;10.38;3.30;;;;;;;18.24;28.09;99783.84;7765505;32;38769;-83
2023/04/28 16:50:39;;;;;;;7.95;3.53;;;;;;;18.23;28.56;99785.00;7766281;32;37049;-84
2023/04/28 16:54:57;;;;;;;8.25;3.10;;;;;;;17.82;28.90;99777.91;7765414;32;39422;-83
2023/04/28 16:59:15;;;;;;;8.50;3.47;;;;;;;17.76;28.83;99771.72;7766087;32;39900;-84
2023/04/28 17:03:33;;;;;;;7.47;3.50;;;;;;;17.88;28.87;99762.84;7765600;32;37901;-83
2023/04/28 17:07:49;;;;;;;9.40;3.40;;;;;;;17.40;29.95;99758.13;7765778;32;36749;-84
2023/04/28 17:12:06;;;;;;;8.77;3.12;;;;;;;17.70;29.55;99766.69;7782734;32;39345;-83
2023/04/28 17:16:23;;;;;;;8.77;3.20;;;;;;;18.02;29.60;99774.56;7785499;32;40792;-83
2023/04/28 17:20:40;;;;;;;8.18;3.22;;;;;;;17.78;29.53;99782.41;7773721;32;38482;-83
2023/04/28 17:24:56;;;;;;;12.30;3.97;;;;;;;17.75;29.93;99769.31;7791096;32;37159;-83
2023/04/28 17:29:13;;;;;;;10.93;3.78;;;;;;;17.58;30.12;99746.06;7791166;32;39345;-83
2023/04/28 17:33:29;;;;;;;10.13;3.70;;;;;;;17.78;30.42;99738.31;7761804;32;40903;-85
2023/04/28 17:37:45;;;;;;;7.70;3.40;;;;;;;17.49;31.26;99739.72;7752777;32;37683;-86
2023/04/28 17:42:02;;;;;;;6.65;3.12;;;;;;;17.72;30.56;99747.88;7764850;32;37070;-85
2023/04/28 17:46:21;;;;;;;6.12;3.05;;;;;;;17.69;30.75;99746.56;7744582;32;38731;-87
2023/04/28 17:50:38;;;;;;;6.93;3.00;;;;;;;17.60;31.17;99740.22;7742019;32;39979;-87
2023/04/28 17:54:56;;;;;;;7.68;2.92;;;;;;;17.63;32.08;99742.34;7764991;32;37956;-87
2023/04/28 17:59:13;;;;;;;10.90;3.72;;;;;;;17.62;33.04;99762.75;7764543;32;36918;-85
2023/04/28 18:03:31;;;;;;;8.95;3.33;;;;;;;17.45;35.49;99766.25;7764233;32;40089;-85
2023/04/28 18:07:47;;;;;;;8.90;3.90;;;;;;;17.30;36.00;99769.44;7762545;32;39923;-88
2023/04/28 18:12:04;;;;;;;8.73;4.05;;;;;;;17.43;35.78;99763.81;7768105;32;37757;-87
2023/04/28 18:16:22;;;;;;;11.98;4.10;;;;;;;17.39;35.72;99756.53;7784005;32;37058;-86
2023/04/28 18:20:45;;;;;;;13.45;3.95;;;;;;;16.84;36.12;99758.50;7766974;32;38508;-87
2023/04/28 18:25:03;;;;;;;8.93;3.47;;;;;;;17.05;35.11;99767.06;7784945;32;40118;-90
2023/04/28 18:29:19;;;;;;;11.23;4.05;;;;;;;16.66;36.15;99765.00;7784315;32;38659;-88
2023/04/28 18:33:36;;;;;;;8.80;3.95;;;;;;;16.19;37.36;99778.22;7776382;32;37324;-90
2023/04/28 18:37:53;;;;;;;8.13;3.90;;;;;;;16.72;38.07;99780.25;7786821;32;38634;-88
2023/04/28 18:42:10;;;;;;;11.35;3.92;;;;;;;16.64;38.50;99768.09;7775449;32;39629;-87
2023/04/28 18:46:28;;;;;;;6.70;3.50;;;;;;;16.62;37.84;99777.75;7780994;32;37903;-87
2023/04/28 18:50:47;;;;;;;9.27;4.00;;;;;;;16.66;37.69;99787.00;7772095;32;37377;-87
2023/04/28 18:55:05;;;;;;;9.45;3.75;;;;;;;16.19;38.99;99790.03;7785272;32;39443;-86
2023/04/28 18:59:24;;;;;;;7.53;4.18;;;;;;;16.10;38.88;99791.88;7773419;32;39861;-87
2023/04/28 19:03:42;;;;;;;8.98;4.12;;;;;;;16.19;38.31;99791.97;7783866;32;36779;-88
2023/04/28 19:08:00;;;;;;;7.43;3.62;;;;;;;16.02;39.47;99798.91;7765724;32;36802;-88
2023/04/28 19:12:18;;;;;;;11.55;3.97;;;;;;;16.02;40.27;99798.91;7752398;32;40026;-88
2023/04/28 19:16:35;;;;;;;12.32;4.10;;;;;;;16.12;42.07;99804.19;7776419;32;39986;-87
2023/04/28 19:21:02;;;;;;;8.80;4.28;;;;;;;16.05;43.88;99806.56;7788161;32;37806;-87
2023/04/28 19:25:20;;;;;;;8.15;4.50;;;;;;;15.82;43.49;99810.37;7785581;32;36381;-87
2023/04/28 19:29:41;;;;;;;13.48;4.35;;;;;;;16.07;42.65;99812.56;7777143;32;40025;-86
2023/04/28 19:34:00;;;;;;;10.88;4.62;;;;;;;15.77;43.17;99801.09;7789329;32;40110;-86
2023/04/28 19:38:19;;;;;;;8.77;4.47;;;;;;;15.54;44.42;99807.59;7787637;32;37835;-87
2023/04/28 19:42:35;;;;;;;12.37;5.05;;;;;;;15.76;44.09;99793.97;7776965;32;37874;-88
2023/04/28 19:46:52;;;;;;;9.15;5.15;;;;;;;15.30;45.86;99791.28;7783223;32;38748;-87
2023/04/28 19:51:08;;;;;;;11.73;4.87;;;;;;;15.06;47.08;99794.19;7773526;32;39913;-87
2023/04/28 19:55:26;;;;;;;9.27;5.12;;;;;;;15.11;46.96;99786.66;7779435;32;38036;-87
2023/04/28 19:59:43;;;;;;;10.63;5.25;;;;;;;15.02;47.42;99770.09;7765724;32;37058;-87
2023/04/28 20:03:59;;;;;;;12.13;5.45;;;;;;;14.84;47.70;99776.44;7763728;32;39172;-87
2023/04/28 20:08:18;;;;;;;10.80;5.37;;;;;;;15.16;47.29;99770.09;7789551;32;39824;-88